Latest Coastal Weather Observations for Hogan Island

IDT60701

Issued at 11:45 pm EST Monday 1 September 2014 (issued every 10 minutes, with the page automatically refreshed every 10 minutes)

About coastal observations | Map of coastal stations | Coastal observations for TAS | Marine services | Other Formats
Station Details ID: 200838 Name: HOGAN ISLAND Lat: -39.22 Lon: 146.98 Height: 116.0 m
Data from the previous 72 hours. | See also: Recent months at Hogan Island
Date/Time
EST
Temp

°C
Wind Pressure Rain
since 9am
mm
Weather Cloud Vis
km
Sea
Height
m
Swell
Dir
 
Speed
knots
Gust
knots
hPa Trend Height
m
Period
s
Dir
01/11:30pm 11.1 WSW 30 37 1008.8 - 0.0 - - - - - - -
01/11:00pm 11.1 WSW 29 34 1008.6 - 0.0 - - - - - - -
01/10:30pm 11.1 WSW 27 31 1008.6 - 0.0 - - - - - - -
01/10:00pm 11.2 WSW 27 31 1008.5 - 0.0 - - - - - - -
01/09:30pm 11.4 WSW 25 29 1008.5 - 0.0 - - - - - - -
01/09:00pm 11.4 WSW 25 29 1008.4 - 0.0 - - - - - - -
01/08:30pm 11.4 WSW 25 28 1008.3 - 0.0 - - - - - - -
01/08:00pm 11.4 W 24 28 1008.3 - 0.0 - - - - - - -
01/07:30pm 11.6 W 24 28 1008.0 - 0.0 - - - - - - -
01/07:00pm 11.6 W 22 25 1007.7 - 0.0 - - - - - - -
01/06:30pm 11.3 W 20 23 1007.4 - 0.0 - - - - - - -
01/06:00pm 11.5 WNW 24 30 1006.9 - 0.0 - - - - - - -
01/05:30pm 11.5 WNW 25 28 1006.4 - 0.0 - - - - - - -
01/05:00pm 11.7 WNW 27 30 1006.2 - 0.0 - - - - - - -
01/04:30pm 11.6 WNW 28 31 1005.9 - 0.0 - - - - - - -
01/04:00pm 11.9 WNW 24 29 1005.8 - 0.0 - - - - - - -
01/03:30pm 11.7 WNW 28 33 1005.7 - 0.0 - - - - - - -
01/03:00pm 11.5 WNW 28 33 1006.1 - 0.0 - - - - - - -
01/02:30pm 12.2 WNW 27 32 1006.1 - 0.0 - - - - - - -
01/02:00pm 12.9 WNW 31 37 1005.7 - 0.0 - - - - - - -
01/01:56pm 13.0 WNW 32 37 1005.5 - 0.0 - - - - - - -
01/01:38pm 13.3 W 22 32 1006.2 - 0.0 - - - - - - -
01/01:30pm 13.3 W 19 21 1006.3 - 0.0 - - - - - - -
01/01:26pm 13.4 W 17 21 1006.4 - 0.0 - - - - - - -
01/01:00pm 14.4 NW 20 25 1006.2 - 0.0 - - - - - - -
01/12:30pm 14.2 WNW 19 21 1006.6 - 0.0 - - - - - - -
01/12:00pm 14.8 WNW 18 21 1007.0 - 0.0 - - - - - - -
01/11:30am 14.2 W 17 22 1007.2 - 0.0 - - - - - - -
01/11:00am 14.5 WNW 16 23 1007.3 - 0.0 - - - - - - -
01/10:30am 14.7 NW 19 25 1007.3 - 0.0 - - - - - - -
01/10:00am 14.8 NNW 15 20 1007.3 - 0.0 - - - - - - -
01/09:30am 14.8 N 15 19 1007.4 - 0.0 - - - - - - -
01/09:00am 14.8 N 20 25 1007.5 - 0.0 - - - - - - -
01/08:30am 16.0 N 22 34 1007.4 - 0.0 - - - - - - -
01/08:12am 15.4 N 23 35 1007.3 - 0.0 - - - - - - -
01/08:00am 15.2 N 24 29 1007.5 - 0.0 - - - - - - -
01/07:30am 14.5 N 20 26 1007.4 - 0.0 - - - - - - -
01/07:00am 14.3 NNE 21 25 1007.5 - 0.0 - - - - - - -
01/06:30am 15.7 N 18 25 1008.3 - 0.0 - - - - - - -
01/06:00am 15.7 N 18 25 1008.8 - 0.0 - - - - - - -
01/05:30am 14.3 N 18 26 1008.6 - 0.0 - - - - - - -
01/05:00am 15.2 N 22 26 1008.1 - 0.0 - - - - - - -
01/04:30am 13.9 N 22 26 1008.2 - 0.0 - - - - - - -
01/04:00am 13.5 N 20 24 1008.4 - 0.0 - - - - - - -
01/03:30am 13.7 N 19 24 1008.8 - 0.0 - - - - - - -
01/03:00am 13.6 N 21 25 1009.2 - 0.0 - - - - - - -
01/02:30am 14.0 N 17 25 1009.5 - 0.0 - - - - - - -
01/02:00am 13.6 N 19 23 1009.7 - 0.0 - - - - - - -
01/01:30am 13.3 NNE 19 21 1009.9 - 0.0 - - - - - - -
01/01:00am 13.4 NNE 17 21 1010.2 - 0.0 - - - - - - -
01/12:30am 13.3 NNE 19 22 1010.6 - 0.0 - - - - - - -
01/12:00am 13.3 NNE 20 23 1011.2 - 0.0 - - - - - - -
 
Date/Time
EST
Temp

°C
Wind Pressure Rain
since 9am
mm
Weather Cloud Vis
km
Sea
Height
m
Swell
Dir
 
Speed
knots
Gust
knots
hPa Trend Height
m
Period
s
Dir
31/11:30pm 12.9 NNE 21 24 1011.6 - 0.0 - - - - - - -
31/11:00pm 12.8 NNE 20 24 1011.9 - 0.0 - - - - - - -
31/10:30pm 12.6 NNE 18 21 1012.5 - 0.0 - - - - - - -
31/10:00pm 12.6 NNE 19 22 1012.9 - 0.0 - - - - - - -
31/09:30pm 12.7 NNE 19 23 1013.2 - 0.0 - - - - - - -
31/09:00pm 12.7 NNE 17 21 1013.5 - 0.0 - - - - - - -
31/08:30pm 12.6 NNE 15 18 1013.7 - 0.0 - - - - - - -
31/08:00pm 12.3 NNE 14 16 1013.7 - 0.0 - - - - - - -
31/07:30pm 12.4 NNE 15 18 1013.8 - 0.0 - - - - - - -
31/07:00pm 12.2 NNE 14 16 1014.1 - 0.0 - - - - - - -
31/06:30pm 12.4 NE 13 16 1014.1 - 0.0 - - - - - - -
31/06:00pm 12.5 NE 13 16 1014.1 - 0.0 - - - - - - -
31/05:30pm 12.5 NE 10 14 1014.0 - 0.0 - - - - - - -
31/05:00pm 12.9 NE 10 14 1014.1 - 0.0 - - - - - - -
31/04:30pm 13.0 NE 11 14 1014.0 - 0.0 - - - - - - -
31/04:00pm 13.4 NE 10 14 1014.2 - 0.0 - - - - - - -
31/03:30pm 14.4 NE 9 11 1014.6 - 0.0 - - - - - - -
31/03:00pm 14.2 NE 9 11 1014.9 - 0.0 - - - - - - -
31/02:30pm 14.3 NE 9 11 1015.2 - 0.0 - - - - - - -
31/02:00pm 14.4 NE 10 12 1015.5 - 0.0 - - - - - - -
31/01:30pm 14.4 NE 10 12 1015.8 - 0.0 - - - - - - -
31/01:00pm 13.6 NE 10 12 1016.1 - 0.0 - - - - - - -
31/12:30pm 14.7 NNE 9 11 1016.5 - 0.0 - - - - - - -
31/12:00pm 13.6 NE 8 10 1017.1 - 0.0 - - - - - - -
31/11:30am 14.4 NE 8 11 1017.5 - 0.0 - - - - - - -
31/11:00am 14.2 NE 9 11 1017.7 - 0.0 - - - - - - -
31/10:30am 14.3 NE 10 11 1018.2 - 0.0 - - - - - - -
31/10:00am 13.8 NE 9 12 1018.5 - 0.0 - - - - - - -
31/09:30am 13.3 NNE 11 13 1018.9 - 0.0 - - - - - - -
31/09:00am 13.1 NNE 12 13 1019.2 - 0.0 - - - - - - -
31/08:30am 12.5 NNE 13 15 1019.0 - 0.0 - - - - - - -
31/08:00am 12.6 NE 12 14 1019.3 - 0.0 - - - - - - -
31/07:30am 11.9 NE 12 14 1019.3 - 0.0 - - - - - - -
31/07:00am 11.2 NNE 13 15 1019.2 - 0.0 - - - - - - -
31/06:30am 11.3 NNE 12 15 1019.1 - 0.0 - - - - - - -
31/06:00am 11.2 NNE 11 12 1019.1 - 0.0 - - - - - - -
31/05:30am 11.3 NNE 11 12 1018.9 - 0.0 - - - - - - -
31/05:00am 11.2 N 11 12 1019.0 - 0.0 - - - - - - -
31/04:30am 11.1 NNE 11 13 1019.1 - 0.0 - - - - - - -
31/04:00am 11.2 NNE 11 13 1019.2 - 0.0 - - - - - - -
31/03:30am 11.2 NNE 12 14 1019.4 - 0.0 - - - - - - -
31/03:00am 11.2 NNE 13 15 1019.8 - 0.0 - - - - - - -
31/02:30am 11.2 NNE 13 16 1019.9 - 0.0 - - - - - - -
31/02:00am 11.5 NE 15 17 1020.1 - 0.0 - - - - - - -
31/01:30am 11.5 NE 15 18 1020.5 - 0.0 - - - - - - -
31/01:00am 11.6 NE 16 18 1020.8 - 0.0 - - - - - - -
31/12:30am 11.6 NE 15 19 1021.2 - 0.0 - - - - - - -
31/12:00am 11.6 NE 16 18 1021.6 - 0.0 - - - - - - -
 
Date/Time
EST
Temp

°C
Wind Pressure Rain
since 9am
mm
Weather Cloud Vis
km
Sea
Height
m
Swell
Dir
 
Speed
knots
Gust
knots
hPa Trend Height
m
Period
s
Dir
30/11:30pm 11.4 NE 14 16 1022.1 - 0.0 - - - - - - -
30/11:00pm 11.5 NE 14 16 1022.5 - 0.0 - - - - - - -
30/10:30pm 11.5 NE 14 16 1022.8 - 0.0 - - - - - - -
30/10:00pm 11.7 NE 16 18 1023.0 - 0.0 - - - - - - -
30/09:30pm 11.4 NE 15 19 1023.1 - 0.0 - - - - - - -
30/09:00pm 11.4 NE 16 19 1023.1 - 0.0 - - - - - - -
30/08:30pm 11.7 ENE 18 21 1022.8 - 0.0 - - - - - - -
30/08:00pm 11.6 ENE 18 21 1022.8 - 0.0 - - - - - - -
30/07:30pm 11.6 ENE 18 20 1023.0 - 0.0 - - - - - - -
30/07:00pm 11.5 ENE 17 19 1023.2 - 0.0 - - - - - - -
30/06:30pm 11.7 ENE 17 19 1023.5 - 0.0 - - - - - - -
30/06:00pm 11.6 E 17 20 1023.6 - 0.0 - - - - - - -
30/05:30pm 11.8 ENE 17 19 1023.5 - 0.0 - - - - - - -
30/05:00pm 12.2 ENE 18 21 1023.3 - 0.0 - - - - - - -
30/04:30pm 12.6 ENE 19 21 1023.5 - 0.0 - - - - - - -
30/04:00pm 13.1 ENE 18 20 1023.7 - 0.0 - - - - - - -
30/03:30pm 13.6 ENE 16 19 1023.9 - 0.0 - - - - - - -
30/03:00pm 14.0 ENE 17 19 1024.1 - 0.0 - - - - - - -
30/02:30pm 14.1 ENE 19 21 1024.1 - 0.0 - - - - - - -
30/02:00pm 14.4 NE 17 20 1024.4 - 0.0 - - - - - - -
30/01:30pm 14.6 NE 17 19 1024.6 - 0.0 - - - - - - -
30/01:00pm 14.7 NE 19 22 1025.0 - 0.0 - - - - - - -
30/12:30pm 14.8 NE 17 20 1025.5 - 0.0 - - - - - - -
30/12:00pm 14.8 NE 17 19 1026.1 - 0.0 - - - - - - -
30/11:30am 14.7 ENE 17 19 1026.4 - 0.0 - - - - - - -
30/11:00am 14.6 NE 17 19 1026.9 - 0.0 - - - - - - -
30/10:30am 14.2 ENE 18 20 1027.2 - 0.0 - - - - - - -
30/10:00am 14.1 ENE 16 18 1027.8 - 0.0 - - - - - - -
30/09:30am 13.6 ENE 16 17 1027.9 - 0.0 - - - - - - -
30/09:00am 13.5 ENE 15 18 1028.3 - 0.2 - - - - - - -
30/08:30am 13.1 ENE 15 17 1028.2 - 0.2 - - - - - - -
30/08:00am 12.6 ENE 16 18 1028.3 - 0.2 - - - - - - -
30/07:30am 11.9 ENE 16 19 1028.0 - 0.2 - - - - - - -
30/07:00am 11.3 ENE 18 20 1027.8 - 0.2 - - - - - - -
30/06:30am 10.9 ENE 17 19 1027.8 - 0.2 - - - - - - -
30/06:00am 11.1 ENE 18 21 1027.8 - 0.2 - - - - - - -
30/05:30am 11.1 ENE 18 21 1027.4 - 0.2 - - - - - - -
30/05:00am 11.1 ENE 17 20 1027.6 - 0.2 - - - - - - -
30/04:30am 11.1 ENE 17 19 1027.6 - 0.2 - - - - - - -
30/04:00am 11.2 ENE 19 21 1027.6 - 0.2 - - - - - - -
30/03:30am 11.2 ENE 18 20 1027.6 - 0.2 - - - - - - -
30/03:00am 11.1 ENE 17 20 1028.0 - 0.2 - - - - - - -
30/02:30am 11.3 ENE 14 16 1028.0 - 0.0 - - - - - - -
30/02:00am 11.5 ENE 17 19 1028.1 - 0.0 - - - - - - -
30/01:30am 11.6 ENE 17 20 1028.4 - 0.0 - - - - - - -
30/01:00am 11.5 E 17 21 1028.5 - 0.0 - - - - - - -
30/12:30am 11.5 E 16 18 1028.5 - 0.0 - - - - - - -
30/12:00am 11.3 E 14 17 1028.9 - 0.0 - - - - - - -

Other Formats:

Comma delimited format used in spreadsheet applications
http://www.bom.gov.au/fwo/IDT60701/IDT60701.94949.axf

JavaScript Object Notation format (JSON) in row-major order
http://www.bom.gov.au/fwo/IDT60701/IDT60701.94949.json